sensor_id;sensor_type;location;lat;lon;timestamp;temperature;humidity
64034;SHT31;50280;49.864;8.638;2022-07-29T00:00:00;21.72;45.73
64034;SHT31;50280;49.864;8.638;2022-07-29T00:02:33;21.72;46.28
64034;SHT31;50280;49.864;8.638;2022-07-29T00:05:06;21.71;46.02
64034;SHT31;50280;49.864;8.638;2022-07-29T00:07:40;21.71;46.17
64034;SHT31;50280;49.864;8.638;2022-07-29T00:10:13;21.71;46.14
64034;SHT31;50280;49.864;8.638;2022-07-29T00:12:47;21.71;46.09
64034;SHT31;50280;49.864;8.638;2022-07-29T00:15:19;21.68;46.02
64034;SHT31;50280;49.864;8.638;2022-07-29T00:17:51;21.66;45.96
64034;SHT31;50280;49.864;8.638;2022-07-29T00:20:24;21.64;45.81
64034;SHT31;50280;49.864;8.638;2022-07-29T00:22:57;21.62;46.16
64034;SHT31;50280;49.864;8.638;2022-07-29T00:25:29;21.64;46.02
64034;SHT31;50280;49.864;8.638;2022-07-29T00:28:03;21.64;45.92
64034;SHT31;50280;49.864;8.638;2022-07-29T00:30:36;21.61;45.61
64034;SHT31;50280;49.864;8.638;2022-07-29T00:33:08;21.64;45.90
64034;SHT31;50280;49.864;8.638;2022-07-29T00:35:41;21.65;45.86
64034;SHT31;50280;49.864;8.638;2022-07-29T00:38:15;21.66;45.73
64034;SHT31;50280;49.864;8.638;2022-07-29T00:40:50;21.68;45.86
64034;SHT31;50280;49.864;8.638;2022-07-29T00:43:24;21.69;45.77
64034;SHT31;50280;49.864;8.638;2022-07-29T00:45:56;21.68;45.66
64034;SHT31;50280;49.864;8.638;2022-07-29T00:48:29;21.68;45.07
64034;SHT31;50280;49.864;8.638;2022-07-29T00:51:03;21.66;44.77
64034;SHT31;50280;49.864;8.638;2022-07-29T00:53:37;21.65;44.61
64034;SHT31;50280;49.864;8.638;2022-07-29T00:56:10;21.62;44.54
64034;SHT31;50280;49.864;8.638;2022-07-29T00:58:44;21.61;44.51
64034;SHT31;50280;49.864;8.638;2022-07-29T01:01:19;21.58;44.59
64034;SHT31;50280;49.864;8.638;2022-07-29T01:03:52;21.55;44.67
64034;SHT31;50280;49.864;8.638;2022-07-29T01:06:25;21.51;44.76
64034;SHT31;50280;49.864;8.638;2022-07-29T01:08:59;21.51;44.61
64034;SHT31;50280;49.864;8.638;2022-07-29T01:11:33;21.47;44.64
64034;SHT31;50280;49.864;8.638;2022-07-29T01:14:08;21.44;44.46
64034;SHT31;50280;49.864;8.638;2022-07-29T01:16:46;21.40;44.35
64034;SHT31;50280;49.864;8.638;2022-07-29T01:26:27;21.28;44.91
64034;SHT31;50280;49.864;8.638;2022-07-29T01:29:22;21.22;45.14
64034;SHT31;50280;49.864;8.638;2022-07-29T01:32:03;21.20;45.11
64034;SHT31;50280;49.864;8.638;2022-07-29T01:34:52;21.14;45.01
64034;SHT31;50280;49.864;8.638;2022-07-29T01:37:39;21.10;45.25
64034;SHT31;50280;49.864;8.638;2022-07-29T01:40:22;21.11;45.27
64034;SHT31;50280;49.864;8.638;2022-07-29T01:43:06;21.07;45.35
64034;SHT31;50280;49.864;8.638;2022-07-29T01:45:50;21.06;45.30
64034;SHT31;50280;49.864;8.638;2022-07-29T01:48:36;21.02;45.35
64034;SHT31;50280;49.864;8.638;2022-07-29T01:51:18;21.02;45.55
64034;SHT31;50280;49.864;8.638;2022-07-29T01:54:02;20.96;45.80
64034;SHT31;50280;49.864;8.638;2022-07-29T01:56:42;20.95;45.84
64034;SHT31;50280;49.864;8.638;2022-07-29T01:59:17;20.89;46.09
64034;SHT31;50280;49.864;8.638;2022-07-29T02:01:54;20.86;46.20
64034;SHT31;50280;49.864;8.638;2022-07-29T02:04:31;20.85;46.31
64034;SHT31;50280;49.864;8.638;2022-07-29T02:07:10;20.81;46.16
64034;SHT31;50280;49.864;8.638;2022-07-29T02:09:50;20.79;46.13
64034;SHT31;50280;49.864;8.638;2022-07-29T02:12:25;20.75;46.24
64034;SHT31;50280;49.864;8.638;2022-07-29T02:15:03;20.69;46.40
64034;SHT31;50280;49.864;8.638;2022-07-29T02:17:42;20.67;46.29
64034;SHT31;50280;49.864;8.638;2022-07-29T02:20:22;20.67;46.19
64034;SHT31;50280;49.864;8.638;2022-07-29T02:22:58;20.62;46.29
64034;SHT31;50280;49.864;8.638;2022-07-29T02:25:34;20.59;46.32
64034;SHT31;50280;49.864;8.638;2022-07-29T02:28:07;20.61;46.36
64034;SHT31;50280;49.864;8.638;2022-07-29T02:30:42;20.56;46.38
64034;SHT31;50280;49.864;8.638;2022-07-29T02:33:20;20.56;46.10
64034;SHT31;50280;49.864;8.638;2022-07-29T02:35:56;20.55;46.42
64034;SHT31;50280;49.864;8.638;2022-07-29T02:38:34;20.51;46.20
64034;SHT31;50280;49.864;8.638;2022-07-29T02:41:12;20.48;46.34
64034;SHT31;50280;49.864;8.638;2022-07-29T02:43:54;20.44;46.46
64034;SHT31;50280;49.864;8.638;2022-07-29T02:46:40;20.43;46.33
64034;SHT31;50280;49.864;8.638;2022-07-29T02:49:29;20.41;46.39
64034;SHT31;50280;49.864;8.638;2022-07-29T02:52:10;20.41;46.44
64034;SHT31;50280;49.864;8.638;2022-07-29T02:55:00;20.38;46.50
64034;SHT31;50280;49.864;8.638;2022-07-29T02:57:47;20.34;46.71
64034;SHT31;50280;49.864;8.638;2022-07-29T03:00:31;20.34;46.98
64034;SHT31;50280;49.864;8.638;2022-07-29T03:03:12;20.28;46.95
64034;SHT31;50280;49.864;8.638;2022-07-29T03:05:52;20.28;47.10
64034;SHT31;50280;49.864;8.638;2022-07-29T03:08:30;20.24;47.11
64034;SHT31;50280;49.864;8.638;2022-07-29T03:11:04;20.21;47.48
64034;SHT31;50280;49.864;8.638;2022-07-29T03:13:40;20.16;47.44
64034;SHT31;50280;49.864;8.638;2022-07-29T03:16:14;20.14;47.51
64034;SHT31;50280;49.864;8.638;2022-07-29T03:18:48;20.08;47.52
64034;SHT31;50280;49.864;8.638;2022-07-29T03:21:22;20.03;47.65
64034;SHT31;50280;49.864;8.638;2022-07-29T03:23:55;19.99;47.83
64034;SHT31;50280;49.864;8.638;2022-07-29T03:26:28;19.94;47.97
64034;SHT31;50280;49.864;8.638;2022-07-29T03:29:00;19.94;48.03
64034;SHT31;50280;49.864;8.638;2022-07-29T03:31:33;19.89;48.34
64034;SHT31;50280;49.864;8.638;2022-07-29T03:34:05;19.86;48.32
64034;SHT31;50280;49.864;8.638;2022-07-29T03:36:39;19.86;48.25
64034;SHT31;50280;49.864;8.638;2022-07-29T03:39:14;19.85;48.41
64034;SHT31;50280;49.864;8.638;2022-07-29T03:41:55;19.82;48.65
64034;SHT31;50280;49.864;8.638;2022-07-29T03:44:33;19.79;48.67
64034;SHT31;50280;49.864;8.638;2022-07-29T03:47:09;19.78;48.68
64034;SHT31;50280;49.864;8.638;2022-07-29T03:49:48;19.74;48.73
64034;SHT31;50280;49.864;8.638;2022-07-29T03:52:26;19.69;49.00
64034;SHT31;50280;49.864;8.638;2022-07-29T03:54:58;19.69;49.00
64034;SHT31;50280;49.864;8.638;2022-07-29T03:57:31;19.68;48.74
64034;SHT31;50280;49.864;8.638;2022-07-29T04:00:07;19.65;48.86
64034;SHT31;50280;49.864;8.638;2022-07-29T04:02:41;19.61;48.68
64034;SHT31;50280;49.864;8.638;2022-07-29T04:05:16;19.59;48.82
64034;SHT31;50280;49.864;8.638;2022-07-29T04:07:51;19.58;48.87
64034;SHT31;50280;49.864;8.638;2022-07-29T04:10:23;19.55;48.88
64034;SHT31;50280;49.864;8.638;2022-07-29T04:12:55;19.53;49.07
64034;SHT31;50280;49.864;8.638;2022-07-29T04:15:28;19.51;49.02
64034;SHT31;50280;49.864;8.638;2022-07-29T04:18:01;19.53;49.11
64034;SHT31;50280;49.864;8.638;2022-07-29T04:20:33;19.51;49.04
64034;SHT31;50280;49.864;8.638;2022-07-29T04:23:07;19.50;49.16
64034;SHT31;50280;49.864;8.638;2022-07-29T04:25:40;19.47;49.23
64034;SHT31;50280;49.864;8.638;2022-07-29T04:28:13;19.47;49.62
64034;SHT31;50280;49.864;8.638;2022-07-29T04:30:45;19.44;49.56
64034;SHT31;50280;49.864;8.638;2022-07-29T04:33:18;19.43;49.58
64034;SHT31;50280;49.864;8.638;2022-07-29T04:35:50;19.44;49.56
64034;SHT31;50280;49.864;8.638;2022-07-29T04:38:24;19.43;49.76
64034;SHT31;50280;49.864;8.638;2022-07-29T04:40:56;19.44;49.59
64034;SHT31;50280;49.864;8.638;2022-07-29T04:43:29;19.43;49.87
64034;SHT31;50280;49.864;8.638;2022-07-29T04:46:01;19.47;49.78
64034;SHT31;50280;49.864;8.638;2022-07-29T04:48:34;19.47;49.50
64034;SHT31;50280;49.864;8.638;2022-07-29T04:51:06;19.46;49.56
64034;SHT31;50280;49.864;8.638;2022-07-29T04:53:40;19.48;49.68
64034;SHT31;50280;49.864;8.638;2022-07-29T04:56:13;19.48;49.54
64034;SHT31;50280;49.864;8.638;2022-07-29T04:58:45;19.50;49.66
64034;SHT31;50280;49.864;8.638;2022-07-29T05:01:18;19.51;49.61
64034;SHT31;50280;49.864;8.638;2022-07-29T05:03:51;19.54;49.58
64034;SHT31;50280;49.864;8.638;2022-07-29T05:06:23;19.51;49.69
64034;SHT31;50280;49.864;8.638;2022-07-29T05:08:57;19.50;49.73
64034;SHT31;50280;49.864;8.638;2022-07-29T05:11:30;19.51;49.65
64034;SHT31;50280;49.864;8.638;2022-07-29T05:14:02;19.53;50.02
64034;SHT31;50280;49.864;8.638;2022-07-29T05:16:34;19.54;49.88
64034;SHT31;50280;49.864;8.638;2022-07-29T05:19:07;19.55;49.87
64034;SHT31;50280;49.864;8.638;2022-07-29T05:21:40;19.57;49.97
64034;SHT31;50280;49.864;8.638;2022-07-29T05:24:14;19.59;50.23
64034;SHT31;50280;49.864;8.638;2022-07-29T05:26:46;19.59;49.98
64034;SHT31;50280;49.864;8.638;2022-07-29T05:29:19;19.64;49.60
64034;SHT31;50280;49.864;8.638;2022-07-29T05:31:51;19.71;49.74
64034;SHT31;50280;49.864;8.638;2022-07-29T05:34:24;19.72;49.88
64034;SHT31;50280;49.864;8.638;2022-07-29T05:36:56;19.78;49.62
64034;SHT31;50280;49.864;8.638;2022-07-29T05:39:30;19.81;49.59
64034;SHT31;50280;49.864;8.638;2022-07-29T05:42:03;19.83;49.80
64034;SHT31;50280;49.864;8.638;2022-07-29T05:44:40;19.90;49.60
64034;SHT31;50280;49.864;8.638;2022-07-29T05:47:12;19.94;49.49
64034;SHT31;50280;49.864;8.638;2022-07-29T05:49:44;19.99;49.67
64034;SHT31;50280;49.864;8.638;2022-07-29T05:52:17;20.02;49.36
64034;SHT31;50280;49.864;8.638;2022-07-29T05:54:51;20.08;49.07
64034;SHT31;50280;49.864;8.638;2022-07-29T05:57:24;20.12;49.37
64034;SHT31;50280;49.864;8.638;2022-07-29T05:59:56;20.16;48.64
64034;SHT31;50280;49.864;8.638;2022-07-29T06:02:29;20.17;48.77
64034;SHT31;50280;49.864;8.638;2022-07-29T06:05:01;20.23;48.69
64034;SHT31;50280;49.864;8.638;2022-07-29T06:07:34;20.26;48.57
64034;SHT31;50280;49.864;8.638;2022-07-29T06:10:08;20.31;48.15
64034;SHT31;50280;49.864;8.638;2022-07-29T06:12:41;20.37;48.43
64034;SHT31;50280;49.864;8.638;2022-07-29T06:15:13;20.41;48.26
64034;SHT31;50280;49.864;8.638;2022-07-29T06:17:46;20.45;48.54
64034;SHT31;50280;49.864;8.638;2022-07-29T06:20:18;20.54;48.13
64034;SHT31;50280;49.864;8.638;2022-07-29T06:22:51;20.55;48.02
64034;SHT31;50280;49.864;8.638;2022-07-29T06:25:24;20.64;48.27
64034;SHT31;50280;49.864;8.638;2022-07-29T06:27:57;20.69;47.61
64034;SHT31;50280;49.864;8.638;2022-07-29T06:30:30;20.81;47.72
64034;SHT31;50280;49.864;8.638;2022-07-29T06:33:03;20.88;47.18
64034;SHT31;50280;49.864;8.638;2022-07-29T06:35:36;20.98;47.15
64034;SHT31;50280;49.864;8.638;2022-07-29T06:38:08;21.06;46.75
64034;SHT31;50280;49.864;8.638;2022-07-29T06:40:42;21.19;46.70
64034;SHT31;50280;49.864;8.638;2022-07-29T06:43:15;21.31;46.25
64034;SHT31;50280;49.864;8.638;2022-07-29T06:45:48;21.43;45.78
64034;SHT31;50280;49.864;8.638;2022-07-29T06:48:20;21.54;45.71
64034;SHT31;50280;49.864;8.638;2022-07-29T06:50:52;21.65;44.64
64034;SHT31;50280;49.864;8.638;2022-07-29T06:53:25;21.77;45.15
64034;SHT31;50280;49.864;8.638;2022-07-29T06:56:00;21.86;45.60
64034;SHT31;50280;49.864;8.638;2022-07-29T06:58:35;21.95;45.04
64034;SHT31;50280;49.864;8.638;2022-07-29T07:01:08;22.05;45.34
64034;SHT31;50280;49.864;8.638;2022-07-29T07:03:40;22.16;44.96
64034;SHT31;50280;49.864;8.638;2022-07-29T07:06:13;22.26;44.55
64034;SHT31;50280;49.864;8.638;2022-07-29T07:08:46;22.37;44.69
64034;SHT31;50280;49.864;8.638;2022-07-29T07:11:20;22.50;44.83
64034;SHT31;50280;49.864;8.638;2022-07-29T07:13:53;22.55;44.12
64034;SHT31;50280;49.864;8.638;2022-07-29T07:16:26;22.61;43.20
64034;SHT31;50280;49.864;8.638;2022-07-29T07:18:58;22.75;43.31
64034;SHT31;50280;49.864;8.638;2022-07-29T07:21:32;22.82;43.85
64034;SHT31;50280;49.864;8.638;2022-07-29T07:24:06;22.94;44.32
64034;SHT31;50280;49.864;8.638;2022-07-29T07:26:40;23.06;43.75
64034;SHT31;50280;49.864;8.638;2022-07-29T07:29:12;23.22;43.65
64034;SHT31;50280;49.864;8.638;2022-07-29T07:31:44;23.40;43.76
64034;SHT31;50280;49.864;8.638;2022-07-29T07:34:17;23.62;42.79
64034;SHT31;50280;49.864;8.638;2022-07-29T07:36:49;23.85;42.55
64034;SHT31;50280;49.864;8.638;2022-07-29T07:39:22;24.05;42.68
64034;SHT31;50280;49.864;8.638;2022-07-29T07:41:56;24.30;42.77
64034;SHT31;50280;49.864;8.638;2022-07-29T07:44:28;24.48;42.38
64034;SHT31;50280;49.864;8.638;2022-07-29T07:47:00;24.64;42.23
64034;SHT31;50280;49.864;8.638;2022-07-29T07:49:33;24.71;42.93
64034;SHT31;50280;49.864;8.638;2022-07-29T07:52:05;24.76;43.10
64034;SHT31;50280;49.864;8.638;2022-07-29T07:54:38;24.95;42.35
64034;SHT31;50280;49.864;8.638;2022-07-29T07:57:12;25.22;42.47
64034;SHT31;50280;49.864;8.638;2022-07-29T07:59:46;25.50;41.68
64034;SHT31;50280;49.864;8.638;2022-07-29T08:02:18;25.81;41.55
64034;SHT31;50280;49.864;8.638;2022-07-29T08:04:51;26.08;41.04
64034;SHT31;50280;49.864;8.638;2022-07-29T08:07:23;26.29;40.92
64034;SHT31;50280;49.864;8.638;2022-07-29T08:09:55;26.53;41.01
64034;SHT31;50280;49.864;8.638;2022-07-29T08:12:29;26.75;40.17
64034;SHT31;50280;49.864;8.638;2022-07-29T08:15:02;26.95;40.77
64034;SHT31;50280;49.864;8.638;2022-07-29T08:17:35;27.06;43.53
64034;SHT31;50280;49.864;8.638;2022-07-29T08:20:08;27.02;43.49
64034;SHT31;50280;49.864;8.638;2022-07-29T08:22:41;26.88;44.90
64034;SHT31;50280;49.864;8.638;2022-07-29T08:25:14;26.95;45.00
64034;SHT31;50280;49.864;8.638;2022-07-29T08:27:48;27.17;43.89
64034;SHT31;50280;49.864;8.638;2022-07-29T08:30:20;27.46;42.86
64034;SHT31;50280;49.864;8.638;2022-07-29T08:32:53;27.80;40.50
64034;SHT31;50280;49.864;8.638;2022-07-29T08:35:26;28.12;40.29
64034;SHT31;50280;49.864;8.638;2022-07-29T08:37:59;28.37;39.55
64034;SHT31;50280;49.864;8.638;2022-07-29T08:40:31;28.54;38.55
64034;SHT31;50280;49.864;8.638;2022-07-29T08:43:06;28.46;38.47
64034;SHT31;50280;49.864;8.638;2022-07-29T08:45:42;28.40;38.67
64034;SHT31;50280;49.864;8.638;2022-07-29T08:48:19;28.35;38.84
64034;SHT31;50280;49.864;8.638;2022-07-29T08:50:56;28.25;39.14
64034;SHT31;50280;49.864;8.638;2022-07-29T08:53:29;28.17;39.39
64034;SHT31;50280;49.864;8.638;2022-07-29T08:56:04;28.31;38.90
64034;SHT31;50280;49.864;8.638;2022-07-29T08:58:40;28.53;38.85
64034;SHT31;50280;49.864;8.638;2022-07-29T09:01:16;28.70;39.68
64034;SHT31;50280;49.864;8.638;2022-07-29T09:03:55;28.53;39.77
64034;SHT31;50280;49.864;8.638;2022-07-29T09:06:31;28.53;39.93
64034;SHT31;50280;49.864;8.638;2022-07-29T09:09:09;28.88;38.62
64034;SHT31;50280;49.864;8.638;2022-07-29T09:11:42;29.18;37.72
64034;SHT31;50280;49.864;8.638;2022-07-29T09:14:17;29.33;37.75
64034;SHT31;50280;49.864;8.638;2022-07-29T09:16:52;29.51;37.89
64034;SHT31;50280;49.864;8.638;2022-07-29T09:19:28;29.68;38.09
64034;SHT31;50280;49.864;8.638;2022-07-29T09:22:05;29.73;37.50
64034;SHT31;50280;49.864;8.638;2022-07-29T09:24:41;29.84;37.48
64034;SHT31;50280;49.864;8.638;2022-07-29T09:27:21;29.82;37.87
64034;SHT31;50280;49.864;8.638;2022-07-29T09:29:58;29.71;37.84
64034;SHT31;50280;49.864;8.638;2022-07-29T09:32:32;29.57;38.05
64034;SHT31;50280;49.864;8.638;2022-07-29T09:35:19;29.54;38.52
64034;SHT31;50280;49.864;8.638;2022-07-29T09:37:54;29.34;38.62
64034;SHT31;50280;49.864;8.638;2022-07-29T09:40:30;29.25;38.64
64034;SHT31;50280;49.864;8.638;2022-07-29T09:43:10;29.46;38.38
64034;SHT31;50280;49.864;8.638;2022-07-29T09:45:45;29.77;38.74
64034;SHT31;50280;49.864;8.638;2022-07-29T09:48:20;30.11;37.77
64034;SHT31;50280;49.864;8.638;2022-07-29T09:50:55;30.32;36.37
64034;SHT31;50280;49.864;8.638;2022-07-29T09:53:32;30.39;37.17
64034;SHT31;50280;49.864;8.638;2022-07-29T09:56:06;30.53;36.90
64034;SHT31;50280;49.864;8.638;2022-07-29T09:58:38;30.66;36.81
64034;SHT31;50280;49.864;8.638;2022-07-29T10:01:12;31.05;35.89
64034;SHT31;50280;49.864;8.638;2022-07-29T10:03:52;31.42;35.56
64034;SHT31;50280;49.864;8.638;2022-07-29T10:06:25;31.59;34.29
64034;SHT31;50280;49.864;8.638;2022-07-29T10:09:07;31.64;34.78
64034;SHT31;50280;49.864;8.638;2022-07-29T10:11:40;31.91;34.29
64034;SHT31;50280;49.864;8.638;2022-07-29T10:14:12;32.12;33.83
64034;SHT31;50280;49.864;8.638;2022-07-29T10:16:48;32.39;33.61
64034;SHT31;50280;49.864;8.638;2022-07-29T10:19:20;32.64;33.05
64034;SHT31;50280;49.864;8.638;2022-07-29T10:21:54;32.74;33.57
64034;SHT31;50280;49.864;8.638;2022-07-29T10:24:28;32.91;32.83
64034;SHT31;50280;49.864;8.638;2022-07-29T10:27:07;33.04;32.27
64034;SHT31;50280;49.864;8.638;2022-07-29T10:29:40;32.96;32.41
64034;SHT31;50280;49.864;8.638;2022-07-29T10:32:29;32.74;33.13
64034;SHT31;50280;49.864;8.638;2022-07-29T10:35:26;32.52;33.41
64034;SHT31;50280;49.864;8.638;2022-07-29T10:38:39;32.70;33.80
64034;SHT31;50280;49.864;8.638;2022-07-29T10:41:39;32.79;33.32
64034;SHT31;50280;49.864;8.638;2022-07-29T10:44:40;32.76;32.51
64034;SHT31;50280;49.864;8.638;2022-07-29T10:47:24;32.55;33.14
64034;SHT31;50280;49.864;8.638;2022-07-29T10:49:59;32.36;33.44
64034;SHT31;50280;49.864;8.638;2022-07-29T10:52:54;32.39;34.08
64034;SHT31;50280;49.864;8.638;2022-07-29T10:55:32;32.60;32.86
64034;SHT31;50280;49.864;8.638;2022-07-29T10:58:14;32.79;32.33
64034;SHT31;50280;49.864;8.638;2022-07-29T11:00:49;33.12;32.74
64034;SHT31;50280;49.864;8.638;2022-07-29T11:03:44;33.72;31.86
64034;SHT31;50280;49.864;8.638;2022-07-29T11:06:19;34.31;30.88
64034;SHT31;50280;49.864;8.638;2022-07-29T11:09:15;34.83;29.96
64034;SHT31;50280;49.864;8.638;2022-07-29T11:11:49;35.03;29.44
64034;SHT31;50280;49.864;8.638;2022-07-29T11:14:55;34.66;29.77
64034;SHT31;50280;49.864;8.638;2022-07-29T11:17:30;34.12;30.49
64034;SHT31;50280;49.864;8.638;2022-07-29T11:20:42;33.81;30.76
64034;SHT31;50280;49.864;8.638;2022-07-29T11:23:22;33.63;30.97
64034;SHT31;50280;49.864;8.638;2022-07-29T11:26:14;33.31;31.28
64034;SHT31;50280;49.864;8.638;2022-07-29T11:28:52;33.50;31.58
64034;SHT31;50280;49.864;8.638;2022-07-29T11:31:37;33.78;31.08
64034;SHT31;50280;49.864;8.638;2022-07-29T11:34:17;33.58;31.43
64034;SHT31;50280;49.864;8.638;2022-07-29T11:37:24;33.18;32.14
64034;SHT31;50280;49.864;8.638;2022-07-29T11:40:11;32.83;32.43
64034;SHT31;50280;49.864;8.638;2022-07-29T11:42:49;32.46;33.61
64034;SHT31;50280;49.864;8.638;2022-07-29T11:45:24;32.43;33.55
64034;SHT31;50280;49.864;8.638;2022-07-29T11:47:59;32.69;32.89
64034;SHT31;50280;49.864;8.638;2022-07-29T11:50:34;33.01;32.87
64034;SHT31;50280;49.864;8.638;2022-07-29T11:53:12;33.35;32.01
64034;SHT31;50280;49.864;8.638;2022-07-29T11:55:57;33.84;31.36
64034;SHT31;50280;49.864;8.638;2022-07-29T11:58:32;34.21;30.69
64034;SHT31;50280;49.864;8.638;2022-07-29T12:01:05;34.20;30.53
64034;SHT31;50280;49.864;8.638;2022-07-29T12:03:37;34.10;30.90
64034;SHT31;50280;49.864;8.638;2022-07-29T12:06:13;34.14;31.10
64034;SHT31;50280;49.864;8.638;2022-07-29T12:08:48;34.05;30.55
64034;SHT31;50280;49.864;8.638;2022-07-29T12:11:23;33.87;30.83
64034;SHT31;50280;49.864;8.638;2022-07-29T12:13:56;33.77;30.76
64034;SHT31;50280;49.864;8.638;2022-07-29T12:16:35;33.73;31.03
64034;SHT31;50280;49.864;8.638;2022-07-29T12:19:08;33.59;31.15
64034;SHT31;50280;49.864;8.638;2022-07-29T12:21:44;33.89;30.12
64034;SHT31;50280;49.864;8.638;2022-07-29T12:24:19;34.39;29.96
64034;SHT31;50280;49.864;8.638;2022-07-29T12:26:54;35.04;29.21
64034;SHT31;50280;49.864;8.638;2022-07-29T12:29:30;35.51;28.53
64034;SHT31;50280;49.864;8.638;2022-07-29T12:32:03;35.79;27.96
64034;SHT31;50280;49.864;8.638;2022-07-29T12:34:36;35.78;27.69
64034;SHT31;50280;49.864;8.638;2022-07-29T12:37:09;35.69;28.12
64034;SHT31;50280;49.864;8.638;2022-07-29T12:39:43;35.37;27.98
64034;SHT31;50280;49.864;8.638;2022-07-29T12:42:16;35.23;28.36
64034;SHT31;50280;49.864;8.638;2022-07-29T12:44:50;35.41;28.39
64034;SHT31;50280;49.864;8.638;2022-07-29T12:47:23;35.78;28.04
64034;SHT31;50280;49.864;8.638;2022-07-29T12:50:09;36.21;26.78
64034;SHT31;50280;49.864;8.638;2022-07-29T12:52:44;36.03;26.64
64034;SHT31;50280;49.864;8.638;2022-07-29T12:55:39;35.86;26.94
64034;SHT31;50280;49.864;8.638;2022-07-29T12:58:14;35.41;27.48
64034;SHT31;50280;49.864;8.638;2022-07-29T13:01:04;35.33;28.03
64034;SHT31;50280;49.864;8.638;2022-07-29T13:03:48;35.14;27.77
64034;SHT31;50280;49.864;8.638;2022-07-29T13:06:35;35.17;28.23
64034;SHT31;50280;49.864;8.638;2022-07-29T13:09:11;35.06;27.73
64034;SHT31;50280;49.864;8.638;2022-07-29T13:11:49;34.96;28.61
64034;SHT31;50280;49.864;8.638;2022-07-29T13:14:31;34.76;28.38
64034;SHT31;50280;49.864;8.638;2022-07-29T13:17:06;34.66;28.56
64034;SHT31;50280;49.864;8.638;2022-07-29T13:19:43;34.55;28.54
64034;SHT31;50280;49.864;8.638;2022-07-29T13:22:20;34.59;28.59
64034;SHT31;50280;49.864;8.638;2022-07-29T13:24:55;34.69;27.02
64034;SHT31;50280;49.864;8.638;2022-07-29T13:27:35;34.87;27.31
64034;SHT31;50280;49.864;8.638;2022-07-29T13:30:11;35.01;28.48
64034;SHT31;50280;49.864;8.638;2022-07-29T13:32:44;35.15;27.98
64034;SHT31;50280;49.864;8.638;2022-07-29T13:35:17;35.17;27.24
64034;SHT31;50280;49.864;8.638;2022-07-29T13:37:51;34.78;27.97
64034;SHT31;50280;49.864;8.638;2022-07-29T13:40:23;34.44;27.19
64034;SHT31;50280;49.864;8.638;2022-07-29T13:42:57;33.94;28.24
64034;SHT31;50280;49.864;8.638;2022-07-29T13:45:30;34.04;28.35
64034;SHT31;50280;49.864;8.638;2022-07-29T13:48:03;33.96;28.40
64034;SHT31;50280;49.864;8.638;2022-07-29T13:50:36;33.83;29.35
64034;SHT31;50280;49.864;8.638;2022-07-29T13:53:11;33.25;30.55
64034;SHT31;50280;49.864;8.638;2022-07-29T13:55:44;32.71;31.27
64034;SHT31;50280;49.864;8.638;2022-07-29T13:58:18;32.19;31.88
64034;SHT31;50280;49.864;8.638;2022-07-29T14:00:50;31.69;32.32
64034;SHT31;50280;49.864;8.638;2022-07-29T14:03:22;31.11;33.00
64034;SHT31;50280;49.864;8.638;2022-07-29T14:05:55;30.66;33.41
64034;SHT31;50280;49.864;8.638;2022-07-29T14:08:27;30.33;33.85
64034;SHT31;50280;49.864;8.638;2022-07-29T14:11:00;30.13;34.55
64034;SHT31;50280;49.864;8.638;2022-07-29T14:13:34;29.97;34.69
64034;SHT31;50280;49.864;8.638;2022-07-29T14:16:06;29.74;35.16
64034;SHT31;50280;49.864;8.638;2022-07-29T14:18:39;29.50;35.64
64034;SHT31;50280;49.864;8.638;2022-07-29T14:21:12;29.45;35.99
64034;SHT31;50280;49.864;8.638;2022-07-29T14:23:44;29.36;36.53
64034;SHT31;50280;49.864;8.638;2022-07-29T14:26:17;29.26;37.06
64034;SHT31;50280;49.864;8.638;2022-07-29T14:28:51;29.22;36.93
64034;SHT31;50280;49.864;8.638;2022-07-29T14:31:23;29.09;37.42
64034;SHT31;50280;49.864;8.638;2022-07-29T14:33:55;29.05;37.52
64034;SHT31;50280;49.864;8.638;2022-07-29T14:36:28;29.02;36.87
64034;SHT31;50280;49.864;8.638;2022-07-29T14:39:00;28.90;36.87
64034;SHT31;50280;49.864;8.638;2022-07-29T14:41:33;28.81;37.86
64034;SHT31;50280;49.864;8.638;2022-07-29T14:44:06;28.77;38.13
64034;SHT31;50280;49.864;8.638;2022-07-29T14:46:39;28.72;38.63
64034;SHT31;50280;49.864;8.638;2022-07-29T14:49:11;28.65;38.23
64034;SHT31;50280;49.864;8.638;2022-07-29T14:51:44;28.60;38.21
64034;SHT31;50280;49.864;8.638;2022-07-29T14:54:16;28.64;38.95
64034;SHT31;50280;49.864;8.638;2022-07-29T14:56:49;28.71;39.19
64034;SHT31;50280;49.864;8.638;2022-07-29T14:59:23;28.81;39.26
64034;SHT31;50280;49.864;8.638;2022-07-29T15:01:56;28.85;38.90
64034;SHT31;50280;49.864;8.638;2022-07-29T15:04:28;28.85;38.22
64034;SHT31;50280;49.864;8.638;2022-07-29T15:07:01;28.75;37.97
64034;SHT31;50280;49.864;8.638;2022-07-29T15:09:33;28.77;38.18
64034;SHT31;50280;49.864;8.638;2022-07-29T15:12:06;28.85;37.61
64034;SHT31;50280;49.864;8.638;2022-07-29T15:14:41;28.88;36.90
64034;SHT31;50280;49.864;8.638;2022-07-29T15:17:14;28.94;36.39
64034;SHT31;50280;49.864;8.638;2022-07-29T15:19:46;29.20;36.29
64034;SHT31;50280;49.864;8.638;2022-07-29T15:22:19;29.37;36.14
64034;SHT31;50280;49.864;8.638;2022-07-29T15:24:51;29.40;35.99
64034;SHT31;50280;49.864;8.638;2022-07-29T15:27:24;29.49;36.50
64034;SHT31;50280;49.864;8.638;2022-07-29T15:29:57;29.57;37.19
64034;SHT31;50280;49.864;8.638;2022-07-29T15:32:30;29.80;37.38
64034;SHT31;50280;49.864;8.638;2022-07-29T15:35:03;30.09;36.93
64034;SHT31;50280;49.864;8.638;2022-07-29T15:37:36;30.32;36.62
64034;SHT31;50280;49.864;8.638;2022-07-29T15:40:10;30.46;36.40
64034;SHT31;50280;49.864;8.638;2022-07-29T15:42:43;30.59;37.08
64034;SHT31;50280;49.864;8.638;2022-07-29T15:45:17;30.66;36.95
64034;SHT31;50280;49.864;8.638;2022-07-29T15:47:49;30.71;39.04
64034;SHT31;50280;49.864;8.638;2022-07-29T15:50:22;30.81;38.46
64034;SHT31;50280;49.864;8.638;2022-07-29T15:52:54;30.80;36.95
64034;SHT31;50280;49.864;8.638;2022-07-29T15:55:27;30.68;37.85
64034;SHT31;50280;49.864;8.638;2022-07-29T15:57:59;30.61;36.53
64034;SHT31;50280;49.864;8.638;2022-07-29T16:00:33;30.55;36.87
64034;SHT31;50280;49.864;8.638;2022-07-29T16:03:05;30.49;37.59
64034;SHT31;50280;49.864;8.638;2022-07-29T16:05:38;30.44;37.72
64034;SHT31;50280;49.864;8.638;2022-07-29T16:08:10;30.41;38.56
64034;SHT31;50280;49.864;8.638;2022-07-29T16:10:43;30.35;37.26
64034;SHT31;50280;49.864;8.638;2022-07-29T16:13:15;30.28;37.64
64034;SHT31;50280;49.864;8.638;2022-07-29T16:15:49;30.21;37.98
64034;SHT31;50280;49.864;8.638;2022-07-29T16:18:22;30.11;37.94
64034;SHT31;50280;49.864;8.638;2022-07-29T16:20:54;29.98;38.39
64034;SHT31;50280;49.864;8.638;2022-07-29T16:23:27;29.84;38.85
64034;SHT31;50280;49.864;8.638;2022-07-29T16:25:59;29.68;40.20
64034;SHT31;50280;49.864;8.638;2022-07-29T16:28:32;29.43;41.65